sensor_id;sensor_type;location;lat;lon;timestamp;P1;durP1;ratioP1;P2;durP2;ratioP2
74630;SDS011;63138;55.082;38.804;2022-10-04T00:10:31;5.50;;;2.63;;
74630;SDS011;63138;55.082;38.804;2022-10-04T00:12:59;3.83;;;2.63;;
74630;SDS011;63138;55.082;38.804;2022-10-04T00:31:11;4.93;;;3.00;;
74630;SDS011;63138;55.082;38.804;2022-10-04T00:39:12;5.03;;;2.93;;
74630;SDS011;63138;55.082;38.804;2022-10-04T00:44:20;4.25;;;2.70;;
74630;SDS011;63138;55.082;38.804;2022-10-04T00:46:55;4.57;;;2.90;;
74630;SDS011;63138;55.082;38.804;2022-10-04T00:49:24;4.32;;;2.88;;
74630;SDS011;63138;55.082;38.804;2022-10-04T00:52:06;6.17;;;3.10;;
74630;SDS011;63138;55.082;38.804;2022-10-04T00:54:43;4.78;;;3.13;;
74630;SDS011;63138;55.082;38.804;2022-10-04T00:57:19;4.60;;;3.15;;
74630;SDS011;63138;55.082;38.804;2022-10-04T00:59:51;6.07;;;3.90;;
74630;SDS011;63138;55.082;38.804;2022-10-04T01:02:24;5.45;;;3.20;;
74630;SDS011;63138;55.082;38.804;2022-10-04T01:04:59;5.13;;;2.27;;
74630;SDS011;63138;55.082;38.804;2022-10-04T01:07:34;4.47;;;3.13;;
74630;SDS011;63138;55.082;38.804;2022-10-04T01:10:08;5.55;;;3.40;;
74630;SDS011;63138;55.082;38.804;2022-10-04T01:18:12;5.50;;;3.57;;
74630;SDS011;63138;55.082;38.804;2022-10-04T01:31:35;5.43;;;3.40;;
74630;SDS011;63138;55.082;38.804;2022-10-04T01:34:03;5.35;;;3.33;;
74630;SDS011;63138;55.082;38.804;2022-10-04T01:36:30;7.22;;;3.80;;
74630;SDS011;63138;55.082;38.804;2022-10-04T01:38:57;8.55;;;3.72;;
74630;SDS011;63138;55.082;38.804;2022-10-04T01:41:25;5.50;;;3.33;;
74630;SDS011;63138;55.082;38.804;2022-10-04T01:43:57;5.07;;;3.77;;
74630;SDS011;63138;55.082;38.804;2022-10-04T01:46:29;11.38;;;3.92;;
74630;SDS011;63138;55.082;38.804;2022-10-04T01:48:59;5.97;;;3.70;;
74630;SDS011;63138;55.082;38.804;2022-10-04T01:51:41;9.70;;;4.88;;
74630;SDS011;63138;55.082;38.804;2022-10-04T01:54:16;10.07;;;4.72;;
74630;SDS011;63138;55.082;38.804;2022-10-04T01:56:50;10.03;;;5.63;;
74630;SDS011;63138;55.082;38.804;2022-10-04T01:59:24;9.05;;;4.65;;
74630;SDS011;63138;55.082;38.804;2022-10-04T02:02:03;7.53;;;3.88;;
74630;SDS011;63138;55.082;38.804;2022-10-04T02:04:35;5.97;;;3.58;;
74630;SDS011;63138;55.082;38.804;2022-10-04T02:07:09;6.82;;;3.85;;
74630;SDS011;63138;55.082;38.804;2022-10-04T02:09:37;7.50;;;3.67;;
74630;SDS011;63138;55.082;38.804;2022-10-04T02:12:08;9.98;;;4.88;;
74630;SDS011;63138;55.082;38.804;2022-10-04T02:14:39;9.27;;;5.07;;
74630;SDS011;63138;55.082;38.804;2022-10-04T02:17:12;8.05;;;4.40;;
74630;SDS011;63138;55.082;38.804;2022-10-04T02:19:40;11.68;;;5.00;;
74630;SDS011;63138;55.082;38.804;2022-10-04T02:22:08;9.27;;;4.80;;
74630;SDS011;63138;55.082;38.804;2022-10-04T02:24:37;9.18;;;3.95;;
74630;SDS011;63138;55.082;38.804;2022-10-04T02:27:07;6.32;;;3.35;;
74630;SDS011;63138;55.082;38.804;2022-10-04T02:29:32;7.35;;;3.70;;
74630;SDS011;63138;55.082;38.804;2022-10-04T02:31:58;8.80;;;3.60;;
74630;SDS011;63138;55.082;38.804;2022-10-04T02:34:43;5.97;;;3.50;;
74630;SDS011;63138;55.082;38.804;2022-10-04T02:37:11;5.47;;;3.90;;
74630;SDS011;63138;55.082;38.804;2022-10-04T02:39:46;4.95;;;3.83;;
74630;SDS011;63138;55.082;38.804;2022-10-04T02:48:25;9.63;;;4.65;;
74630;SDS011;63138;55.082;38.804;2022-10-04T02:50:56;5.60;;;4.13;;
74630;SDS011;63138;55.082;38.804;2022-10-04T02:56:07;7.00;;;3.87;;
74630;SDS011;63138;55.082;38.804;2022-10-04T02:58:35;9.13;;;3.72;;
74630;SDS011;63138;55.082;38.804;2022-10-04T03:01:03;5.93;;;3.20;;
74630;SDS011;63138;55.082;38.804;2022-10-04T03:03:29;5.18;;;2.92;;
74630;SDS011;63138;55.082;38.804;2022-10-04T03:08:34;5.73;;;3.47;;
74630;SDS011;63138;55.082;38.804;2022-10-04T03:11:09;4.82;;;3.25;;
74630;SDS011;63138;55.082;38.804;2022-10-04T03:13:38;6.93;;;3.55;;
74630;SDS011;63138;55.082;38.804;2022-10-04T03:16:06;5.68;;;3.50;;
74630;SDS011;63138;55.082;38.804;2022-10-04T03:18:33;5.82;;;3.70;;
74630;SDS011;63138;55.082;38.804;2022-10-04T03:21:01;5.40;;;3.87;;
74630;SDS011;63138;55.082;38.804;2022-10-04T03:23:29;5.70;;;3.45;;
74630;SDS011;63138;55.082;38.804;2022-10-04T03:28:46;6.15;;;3.90;;
74630;SDS011;63138;55.082;38.804;2022-10-04T03:31:12;5.50;;;3.22;;
74630;SDS011;63138;55.082;38.804;2022-10-04T03:33:39;4.50;;;3.30;;
74630;SDS011;63138;55.082;38.804;2022-10-04T03:36:10;5.85;;;3.70;;
74630;SDS011;63138;55.082;38.804;2022-10-04T03:38:39;8.05;;;4.15;;
74630;SDS011;63138;55.082;38.804;2022-10-04T03:41:05;5.03;;;4.00;;
74630;SDS011;63138;55.082;38.804;2022-10-04T03:43:32;8.77;;;3.73;;
74630;SDS011;63138;55.082;38.804;2022-10-04T03:46:05;5.90;;;3.58;;
74630;SDS011;63138;55.082;38.804;2022-10-04T03:48:34;7.00;;;3.97;;
74630;SDS011;63138;55.082;38.804;2022-10-04T03:51:04;6.50;;;4.25;;
74630;SDS011;63138;55.082;38.804;2022-10-04T03:53:36;6.57;;;3.85;;
74630;SDS011;63138;55.082;38.804;2022-10-04T03:58:57;6.63;;;3.97;;
74630;SDS011;63138;55.082;38.804;2022-10-04T04:12:34;5.85;;;3.88;;
74630;SDS011;63138;55.082;38.804;2022-10-04T04:15:05;8.40;;;4.22;;
74630;SDS011;63138;55.082;38.804;2022-10-04T04:17:37;6.03;;;3.83;;
74630;SDS011;63138;55.082;38.804;2022-10-04T04:20:06;5.97;;;3.92;;
74630;SDS011;63138;55.082;38.804;2022-10-04T04:22:43;4.30;;;3.60;;
74630;SDS011;63138;55.082;38.804;2022-10-04T04:25:13;6.53;;;4.63;;
74630;SDS011;63138;55.082;38.804;2022-10-04T04:27:44;6.97;;;4.32;;
74630;SDS011;63138;55.082;38.804;2022-10-04T04:30:16;8.10;;;4.37;;
74630;SDS011;63138;55.082;38.804;2022-10-04T04:32:47;6.55;;;4.63;;
74630;SDS011;63138;55.082;38.804;2022-10-04T04:35:23;6.47;;;4.00;;
74630;SDS011;63138;55.082;38.804;2022-10-04T04:39:04;6.40;;;3.80;;
74630;SDS011;63138;55.082;38.804;2022-10-04T04:41:06;8.05;;;4.25;;
74630;SDS011;63138;55.082;38.804;2022-10-04T04:43:34;6.27;;;4.17;;
74630;SDS011;63138;55.082;38.804;2022-10-04T04:46:00;9.55;;;3.60;;
74630;SDS011;63138;55.082;38.804;2022-10-04T04:48:26;11.05;;;5.93;;
74630;SDS011;63138;55.082;38.804;2022-10-04T04:50:54;7.50;;;4.38;;
74630;SDS011;63138;55.082;38.804;2022-10-04T04:53:23;6.83;;;4.83;;
74630;SDS011;63138;55.082;38.804;2022-10-04T04:58:23;7.15;;;3.78;;
74630;SDS011;63138;55.082;38.804;2022-10-04T05:00:58;7.93;;;4.05;;
74630;SDS011;63138;55.082;38.804;2022-10-04T05:03:26;8.05;;;4.45;;
74630;SDS011;63138;55.082;38.804;2022-10-04T05:05:56;7.67;;;4.23;;
74630;SDS011;63138;55.082;38.804;2022-10-04T05:08:26;6.80;;;3.38;;
74630;SDS011;63138;55.082;38.804;2022-10-04T05:11:08;7.57;;;4.40;;
74630;SDS011;63138;55.082;38.804;2022-10-04T05:13:44;5.38;;;3.47;;
74630;SDS011;63138;55.082;38.804;2022-10-04T05:16:16;5.28;;;3.42;;
74630;SDS011;63138;55.082;38.804;2022-10-04T05:18:54;4.57;;;3.20;;
74630;SDS011;63138;55.082;38.804;2022-10-04T05:21:24;4.32;;;3.15;;
74630;SDS011;63138;55.082;38.804;2022-10-04T05:23:53;6.60;;;3.30;;
74630;SDS011;63138;55.082;38.804;2022-10-04T05:26:24;5.13;;;3.50;;
74630;SDS011;63138;55.082;38.804;2022-10-04T05:28:58;4.10;;;3.17;;
74630;SDS011;63138;55.082;38.804;2022-10-04T05:31:36;5.23;;;3.50;;
74630;SDS011;63138;55.082;38.804;2022-10-04T05:34:14;4.78;;;3.30;;
74630;SDS011;63138;55.082;38.804;2022-10-04T05:36:49;5.28;;;3.72;;
74630;SDS011;63138;55.082;38.804;2022-10-04T05:39:26;6.50;;;5.00;;
74630;SDS011;63138;55.082;38.804;2022-10-04T05:42:05;4.20;;;3.80;;
74630;SDS011;63138;55.082;38.804;2022-10-04T05:44:53;5.67;;;5.17;;
74630;SDS011;63138;55.082;38.804;2022-10-04T05:47:21;6.68;;;5.10;;
74630;SDS011;63138;55.082;38.804;2022-10-04T05:49:54;5.85;;;4.78;;
74630;SDS011;63138;55.082;38.804;2022-10-04T05:52:37;4.97;;;3.65;;
74630;SDS011;63138;55.082;38.804;2022-10-04T05:57:42;4.70;;;3.90;;
74630;SDS011;63138;55.082;38.804;2022-10-04T06:00:22;6.07;;;3.22;;
74630;SDS011;63138;55.082;38.804;2022-10-04T06:03:12;4.22;;;3.05;;
74630;SDS011;63138;55.082;38.804;2022-10-04T06:06:37;5.07;;;3.67;;
74630;SDS011;63138;55.082;38.804;2022-10-04T06:12:16;4.60;;;3.40;;
74630;SDS011;63138;55.082;38.804;2022-10-04T06:17:40;6.03;;;4.10;;
74630;SDS011;63138;55.082;38.804;2022-10-04T06:20:21;4.18;;;3.78;;
74630;SDS011;63138;55.082;38.804;2022-10-04T06:23:05;6.47;;;4.63;;
74630;SDS011;63138;55.082;38.804;2022-10-04T06:25:44;4.90;;;4.17;;
74630;SDS011;63138;55.082;38.804;2022-10-04T06:28:23;5.32;;;4.30;;
74630;SDS011;63138;55.082;38.804;2022-10-04T06:36:49;5.38;;;4.70;;
74630;SDS011;63138;55.082;38.804;2022-10-04T06:39:56;5.57;;;3.57;;
74630;SDS011;63138;55.082;38.804;2022-10-04T06:51:00;5.15;;;2.90;;
74630;SDS011;63138;55.082;38.804;2022-10-04T07:01:50;6.05;;;3.60;;
74630;SDS011;63138;55.082;38.804;2022-10-04T07:04:55;5.25;;;3.22;;
74630;SDS011;63138;55.082;38.804;2022-10-04T07:09:51;6.33;;;5.00;;
74630;SDS011;63138;55.082;38.804;2022-10-04T07:12:31;4.78;;;4.28;;
74630;SDS011;63138;55.082;38.804;2022-10-04T07:15:00;5.78;;;4.43;;
74630;SDS011;63138;55.082;38.804;2022-10-04T07:17:30;5.25;;;3.78;;
74630;SDS011;63138;55.082;38.804;2022-10-04T07:20:01;6.25;;;4.40;;
74630;SDS011;63138;55.082;38.804;2022-10-04T07:22:40;5.63;;;4.93;;
74630;SDS011;63138;55.082;38.804;2022-10-04T07:25:12;4.25;;;3.83;;
74630;SDS011;63138;55.082;38.804;2022-10-04T07:27:57;5.10;;;3.17;;
74630;SDS011;63138;55.082;38.804;2022-10-04T07:30:59;4.68;;;4.28;;
74630;SDS011;63138;55.082;38.804;2022-10-04T07:33:31;5.45;;;4.60;;
74630;SDS011;63138;55.082;38.804;2022-10-04T07:36:08;5.93;;;4.27;;
74630;SDS011;63138;55.082;38.804;2022-10-04T07:38:38;7.55;;;4.10;;
74630;SDS011;63138;55.082;38.804;2022-10-04T07:44:11;4.85;;;4.20;;
74630;SDS011;63138;55.082;38.804;2022-10-04T07:46:47;6.55;;;4.30;;
74630;SDS011;63138;55.082;38.804;2022-10-04T07:49:19;4.73;;;4.20;;
74630;SDS011;63138;55.082;38.804;2022-10-04T07:55:06;5.35;;;4.22;;
74630;SDS011;63138;55.082;38.804;2022-10-04T07:58:16;6.05;;;4.30;;
74630;SDS011;63138;55.082;38.804;2022-10-04T08:06:14;6.55;;;4.78;;
74630;SDS011;63138;55.082;38.804;2022-10-04T08:14:29;7.68;;;5.50;;
74630;SDS011;63138;55.082;38.804;2022-10-04T08:25:43;12.10;;;5.70;;
74630;SDS011;63138;55.082;38.804;2022-10-04T08:39:53;4.73;;;3.20;;
74630;SDS011;63138;55.082;38.804;2022-10-04T08:48:25;4.05;;;2.47;;
74630;SDS011;63138;55.082;38.804;2022-10-04T08:54:32;5.00;;;4.50;;
74630;SDS011;63138;55.082;38.804;2022-10-04T09:06:32;4.68;;;4.13;;
74630;SDS011;63138;55.082;38.804;2022-10-04T09:17:26;3.25;;;2.17;;
74630;SDS011;63138;55.082;38.804;2022-10-04T09:20:19;3.53;;;2.30;;
74630;SDS011;63138;55.082;38.804;2022-10-04T09:23:03;4.07;;;2.10;;
74630;SDS011;63138;55.082;38.804;2022-10-04T09:34:36;4.43;;;2.30;;
74630;SDS011;63138;55.082;38.804;2022-10-04T09:48:19;7.23;;;2.30;;
74630;SDS011;63138;55.082;38.804;2022-10-04T09:50:58;4.47;;;2.47;;
74630;SDS011;63138;55.082;38.804;2022-10-04T09:54:19;3.35;;;2.20;;
74630;SDS011;63138;55.082;38.804;2022-10-04T09:57:05;3.97;;;2.78;;
74630;SDS011;63138;55.082;38.804;2022-10-04T10:10:55;4.20;;;2.20;;
74630;SDS011;63138;55.082;38.804;2022-10-04T10:27:52;3.20;;;2.40;;
74630;SDS011;63138;55.082;38.804;2022-10-04T10:33:09;6.40;;;3.10;;
74630;SDS011;63138;55.082;38.804;2022-10-04T10:36:12;4.88;;;3.05;;
74630;SDS011;63138;55.082;38.804;2022-10-04T10:47:39;4.32;;;2.47;;
74630;SDS011;63138;55.082;38.804;2022-10-04T10:57:09;3.70;;;2.70;;
74630;SDS011;63138;55.082;38.804;2022-10-04T11:43:17;4.37;;;2.37;;
74630;SDS011;63138;55.082;38.804;2022-10-04T11:57:22;4.17;;;2.67;;
74630;SDS011;63138;55.082;38.804;2022-10-04T12:13:55;4.18;;;2.80;;
74630;SDS011;63138;55.082;38.804;2022-10-04T12:16:52;4.35;;;2.90;;
74630;SDS011;63138;55.082;38.804;2022-10-04T12:22:55;3.50;;;2.60;;
74630;SDS011;63138;55.082;38.804;2022-10-04T12:26:05;5.83;;;3.50;;
74630;SDS011;63138;55.082;38.804;2022-10-04T12:34:39;5.82;;;3.72;;
74630;SDS011;63138;55.082;38.804;2022-10-04T12:49:07;4.90;;;3.53;;
74630;SDS011;63138;55.082;38.804;2022-10-04T12:57:04;16.00;;;7.47;;
74630;SDS011;63138;55.082;38.804;2022-10-04T12:59:42;24.10;;;12.73;;
74630;SDS011;63138;55.082;38.804;2022-10-04T13:05:05;26.05;;;11.38;;
74630;SDS011;63138;55.082;38.804;2022-10-04T13:13:32;22.20;;;13.10;;
74630;SDS011;63138;55.082;38.804;2022-10-04T13:18:57;18.40;;;7.47;;
74630;SDS011;63138;55.082;38.804;2022-10-04T13:24:11;9.80;;;3.95;;
74630;SDS011;63138;55.082;38.804;2022-10-04T13:26:58;6.28;;;3.97;;
74630;SDS011;63138;55.082;38.804;2022-10-04T13:29:31;6.20;;;4.15;;
74630;SDS011;63138;55.082;38.804;2022-10-04T13:32:15;6.57;;;4.50;;
74630;SDS011;63138;55.082;38.804;2022-10-04T13:34:55;6.67;;;4.57;;
74630;SDS011;63138;55.082;38.804;2022-10-04T13:37:49;7.72;;;3.85;;
74630;SDS011;63138;55.082;38.804;2022-10-04T13:46:17;6.70;;;4.10;;
74630;SDS011;63138;55.082;38.804;2022-10-04T13:52:10;5.22;;;3.35;;
74630;SDS011;63138;55.082;38.804;2022-10-04T13:57:53;6.05;;;3.67;;
74630;SDS011;63138;55.082;38.804;2022-10-04T14:16:09;6.10;;;3.67;;
74630;SDS011;63138;55.082;38.804;2022-10-04T14:18:36;7.47;;;3.50;;
74630;SDS011;63138;55.082;38.804;2022-10-04T14:21:30;5.22;;;3.22;;
74630;SDS011;63138;55.082;38.804;2022-10-04T14:27:32;6.40;;;3.53;;
74630;SDS011;63138;55.082;38.804;2022-10-04T14:36:58;5.43;;;3.67;;
74630;SDS011;63138;55.082;38.804;2022-10-04T14:53:24;7.90;;;3.92;;
74630;SDS011;63138;55.082;38.804;2022-10-04T15:01:29;6.93;;;3.90;;
74630;SDS011;63138;55.082;38.804;2022-10-04T15:07:19;6.88;;;4.55;;
74630;SDS011;63138;55.082;38.804;2022-10-04T15:09:56;6.45;;;4.35;;
74630;SDS011;63138;55.082;38.804;2022-10-04T15:17:39;7.05;;;4.07;;
74630;SDS011;63138;55.082;38.804;2022-10-04T15:37:24;7.03;;;3.85;;
74630;SDS011;63138;55.082;38.804;2022-10-04T15:43:40;6.90;;;4.10;;
74630;SDS011;63138;55.082;38.804;2022-10-04T15:49:24;5.38;;;3.22;;
74630;SDS011;63138;55.082;38.804;2022-10-04T15:55:16;5.85;;;3.58;;
74630;SDS011;63138;55.082;38.804;2022-10-04T16:10:16;4.55;;;3.50;;
74630;SDS011;63138;55.082;38.804;2022-10-04T16:15:47;6.20;;;4.20;;
74630;SDS011;63138;55.082;38.804;2022-10-04T16:32:45;6.78;;;4.38;;
74630;SDS011;63138;55.082;38.804;2022-10-04T16:47:59;6.30;;;4.85;;
74630;SDS011;63138;55.082;38.804;2022-10-04T16:53:57;5.97;;;4.03;;
74630;SDS011;63138;55.082;38.804;2022-10-04T17:10:17;6.50;;;4.68;;
74630;SDS011;63138;55.082;38.804;2022-10-04T17:18:19;8.40;;;5.00;;
74630;SDS011;63138;55.082;38.804;2022-10-04T17:21:20;6.77;;;5.17;;
74630;SDS011;63138;55.082;38.804;2022-10-04T17:29:18;6.20;;;4.45;;
74630;SDS011;63138;55.082;38.804;2022-10-04T17:43:11;5.93;;;4.10;;
74630;SDS011;63138;55.082;38.804;2022-10-04T17:48:38;9.80;;;4.50;;
74630;SDS011;63138;55.082;38.804;2022-10-04T17:51:47;8.15;;;5.38;;
74630;SDS011;63138;55.082;38.804;2022-10-04T17:54:43;8.20;;;4.38;;
74630;SDS011;63138;55.082;38.804;2022-10-04T18:00:17;7.97;;;4.80;;
74630;SDS011;63138;55.082;38.804;2022-10-04T18:18:54;10.55;;;4.43;;
74630;SDS011;63138;55.082;38.804;2022-10-04T18:21:30;6.43;;;4.18;;
74630;SDS011;63138;55.082;38.804;2022-10-04T18:26:30;5.78;;;3.85;;
74630;SDS011;63138;55.082;38.804;2022-10-04T18:29:00;6.23;;;4.47;;
74630;SDS011;63138;55.082;38.804;2022-10-04T18:31:35;7.75;;;3.72;;
74630;SDS011;63138;55.082;38.804;2022-10-04T18:36:51;6.03;;;3.60;;
74630;SDS011;63138;55.082;38.804;2022-10-04T18:39:43;7.18;;;3.72;;
74630;SDS011;63138;55.082;38.804;2022-10-04T18:44:58;5.38;;;3.30;;
74630;SDS011;63138;55.082;38.804;2022-10-04T18:50:16;6.82;;;3.22;;
74630;SDS011;63138;55.082;38.804;2022-10-04T19:01:16;8.85;;;3.70;;
74630;SDS011;63138;55.082;38.804;2022-10-04T19:12:40;6.07;;;3.60;;
74630;SDS011;63138;55.082;38.804;2022-10-04T19:15:20;7.95;;;4.10;;
74630;SDS011;63138;55.082;38.804;2022-10-04T19:20:37;10.48;;;4.03;;
74630;SDS011;63138;55.082;38.804;2022-10-04T19:28:35;7.43;;;4.65;;
74630;SDS011;63138;55.082;38.804;2022-10-04T19:33:37;9.25;;;4.43;;
74630;SDS011;63138;55.082;38.804;2022-10-04T19:42:27;8.25;;;2.92;;
74630;SDS011;63138;55.082;38.804;2022-10-04T19:47:49;6.75;;;3.97;;
74630;SDS011;63138;55.082;38.804;2022-10-04T19:50:21;10.50;;;4.47;;
74630;SDS011;63138;55.082;38.804;2022-10-04T19:53:06;8.82;;;4.07;;
74630;SDS011;63138;55.082;38.804;2022-10-04T19:55:41;8.18;;;4.03;;
74630;SDS011;63138;55.082;38.804;2022-10-04T20:00:58;9.00;;;4.20;;
74630;SDS011;63138;55.082;38.804;2022-10-04T20:03:25;8.77;;;4.50;;
74630;SDS011;63138;55.082;38.804;2022-10-04T20:05:52;7.28;;;4.75;;
74630;SDS011;63138;55.082;38.804;2022-10-04T20:19:14;10.35;;;4.80;;
74630;SDS011;63138;55.082;38.804;2022-10-04T20:21:43;9.57;;;4.28;;
74630;SDS011;63138;55.082;38.804;2022-10-04T20:27:00;9.27;;;5.27;;
74630;SDS011;63138;55.082;38.804;2022-10-04T20:34:52;7.05;;;4.10;;
74630;SDS011;63138;55.082;38.804;2022-10-04T20:37:19;7.00;;;4.63;;
74630;SDS011;63138;55.082;38.804;2022-10-04T20:44:55;8.68;;;4.70;;
74630;SDS011;63138;55.082;38.804;2022-10-04T20:47:32;7.00;;;4.47;;
74630;SDS011;63138;55.082;38.804;2022-10-04T20:50:03;6.80;;;3.30;;
74630;SDS011;63138;55.082;38.804;2022-10-04T20:52:46;9.48;;;5.07;;
74630;SDS011;63138;55.082;38.804;2022-10-04T20:55:16;11.18;;;4.65;;
74630;SDS011;63138;55.082;38.804;2022-10-04T20:57:45;6.57;;;3.50;;
74630;SDS011;63138;55.082;38.804;2022-10-04T21:00:19;7.77;;;4.50;;
74630;SDS011;63138;55.082;38.804;2022-10-04T21:03:05;10.85;;;4.38;;
74630;SDS011;63138;55.082;38.804;2022-10-04T21:05:42;7.45;;;3.80;;
74630;SDS011;63138;55.082;38.804;2022-10-04T21:08:12;6.65;;;3.60;;
74630;SDS011;63138;55.082;38.804;2022-10-04T21:13:46;9.23;;;4.00;;
74630;SDS011;63138;55.082;38.804;2022-10-04T21:21:57;8.25;;;4.00;;
74630;SDS011;63138;55.082;38.804;2022-10-04T21:24:35;6.85;;;4.40;;
74630;SDS011;63138;55.082;38.804;2022-10-04T21:27:04;10.33;;;4.17;;
74630;SDS011;63138;55.082;38.804;2022-10-04T21:29:33;8.10;;;4.25;;
74630;SDS011;63138;55.082;38.804;2022-10-04T21:32:00;6.60;;;4.30;;
74630;SDS011;63138;55.082;38.804;2022-10-04T21:34:26;6.90;;;3.47;;
74630;SDS011;63138;55.082;38.804;2022-10-04T21:36:51;7.03;;;3.87;;
74630;SDS011;63138;55.082;38.804;2022-10-04T21:39:17;6.65;;;4.22;;
74630;SDS011;63138;55.082;38.804;2022-10-04T21:41:43;7.78;;;4.25;;
74630;SDS011;63138;55.082;38.804;2022-10-04T21:44:10;10.17;;;4.40;;
74630;SDS011;63138;55.082;38.804;2022-10-04T21:46:36;7.38;;;4.30;;
74630;SDS011;63138;55.082;38.804;2022-10-04T21:49:02;9.35;;;6.05;;
74630;SDS011;63138;55.082;38.804;2022-10-04T21:51:28;7.77;;;4.80;;
74630;SDS011;63138;55.082;38.804;2022-10-04T21:54:03;11.77;;;5.45;;
74630;SDS011;63138;55.082;38.804;2022-10-04T21:56:29;8.18;;;4.82;;
74630;SDS011;63138;55.082;38.804;2022-10-04T21:58:55;8.13;;;4.00;;
74630;SDS011;63138;55.082;38.804;2022-10-04T22:01:21;10.37;;;5.10;;
74630;SDS011;63138;55.082;38.804;2022-10-04T22:03:46;9.98;;;5.53;;
74630;SDS011;63138;55.082;38.804;2022-10-04T22:06:12;11.93;;;5.40;;
74630;SDS011;63138;55.082;38.804;2022-10-04T22:08:38;10.63;;;5.53;;
74630;SDS011;63138;55.082;38.804;2022-10-04T22:11:04;11.10;;;4.90;;
74630;SDS011;63138;55.082;38.804;2022-10-04T22:13:30;12.90;;;5.73;;
74630;SDS011;63138;55.082;38.804;2022-10-04T22:15:56;9.20;;;6.05;;
74630;SDS011;63138;55.082;38.804;2022-10-04T22:18:22;7.80;;;4.70;;
74630;SDS011;63138;55.082;38.804;2022-10-04T22:20:48;11.23;;;5.90;;
74630;SDS011;63138;55.082;38.804;2022-10-04T22:23:17;10.68;;;5.22;;
74630;SDS011;63138;55.082;38.804;2022-10-04T22:25:45;8.63;;;4.68;;
74630;SDS011;63138;55.082;38.804;2022-10-04T22:28:18;9.40;;;6.27;;
74630;SDS011;63138;55.082;38.804;2022-10-04T22:30:46;7.68;;;4.45;;
74630;SDS011;63138;55.082;38.804;2022-10-04T22:33:22;8.02;;;4.85;;
74630;SDS011;63138;55.082;38.804;2022-10-04T22:38:57;10.18;;;4.72;;
74630;SDS011;63138;55.082;38.804;2022-10-04T22:41:26;11.73;;;4.97;;
74630;SDS011;63138;55.082;38.804;2022-10-04T22:43:55;10.82;;;5.82;;
74630;SDS011;63138;55.082;38.804;2022-10-04T22:46:24;9.63;;;5.57;;
74630;SDS011;63138;55.082;38.804;2022-10-04T22:48:58;10.60;;;5.30;;
74630;SDS011;63138;55.082;38.804;2022-10-04T22:51:26;4.25;;;2.72;;
74630;SDS011;63138;55.082;38.804;2022-10-04T22:53:53;6.03;;;2.77;;
74630;SDS011;63138;55.082;38.804;2022-10-04T22:56:19;6.13;;;3.50;;
74630;SDS011;63138;55.082;38.804;2022-10-04T22:58:45;4.82;;;2.80;;
74630;SDS011;63138;55.082;38.804;2022-10-04T23:01:11;5.50;;;2.63;;
74630;SDS011;63138;55.082;38.804;2022-10-04T23:03:39;5.22;;;2.72;;
74630;SDS011;63138;55.082;38.804;2022-10-04T23:06:08;4.50;;;2.70;;
74630;SDS011;63138;55.082;38.804;2022-10-04T23:08:41;4.50;;;2.45;;
74630;SDS011;63138;55.082;38.804;2022-10-04T23:11:07;4.20;;;2.00;;
74630;SDS011;63138;55.082;38.804;2022-10-04T23:13:34;4.63;;;2.20;;
74630;SDS011;63138;55.082;38.804;2022-10-04T23:16:08;3.47;;;1.80;;
74630;SDS011;63138;55.082;38.804;2022-10-04T23:18:37;3.72;;;2.17;;
74630;SDS011;63138;55.082;38.804;2022-10-04T23:21:04;3.77;;;2.20;;
74630;SDS011;63138;55.082;38.804;2022-10-04T23:23:46;3.35;;;1.90;;
74630;SDS011;63138;55.082;38.804;2022-10-04T23:26:18;3.00;;;1.50;;
74630;SDS011;63138;55.082;38.804;2022-10-04T23:28:51;3.13;;;1.90;;
74630;SDS011;63138;55.082;38.804;2022-10-04T23:31:24;2.53;;;1.37;;
74630;SDS011;63138;55.082;38.804;2022-10-04T23:33:52;2.97;;;1.70;;
74630;SDS011;63138;55.082;38.804;2022-10-04T23:36:20;2.95;;;1.55;;
74630;SDS011;63138;55.082;38.804;2022-10-04T23:38:47;2.83;;;1.70;;
74630;SDS011;63138;55.082;38.804;2022-10-04T23:41:16;3.42;;;1.70;;
74630;SDS011;63138;55.082;38.804;2022-10-04T23:43:44;2.70;;;1.57;;
74630;SDS011;63138;55.082;38.804;2022-10-04T23:46:15;4.15;;;1.50;;
74630;SDS011;63138;55.082;38.804;2022-10-04T23:48:43;3.30;;;1.90;;
74630;SDS011;63138;55.082;38.804;2022-10-04T23:51:11;4.68;;;2.03;;
74630;SDS011;63138;55.082;38.804;2022-10-04T23:53:38;2.97;;;1.73;;
74630;SDS011;63138;55.082;38.804;2022-10-04T23:56:10;3.03;;;1.60;;
74630;SDS011;63138;55.082;38.804;2022-10-04T23:58:46;2.70;;;1.63;;
